Terminal Aerodrome Forecast
Issued by NWS Jacksonville, FL

Home | Current Version | Previous Version | Text Only | Print | Product List | Glossary On
Versions: 1 2 3 4 5 6 7 8 9 10 11 12 13 14 15 16 17 18 19 20 21 22 23 24 25 26 27 28 29 30 31 32 33 34
000
FTUS42 KJAX 300600 AAA
TAFSSI
TAF AMD
KSSI 300628Z 3006/0106 35009KT 6SM BR VCSH BKN004 OVC008
     FM300900 36008KT 4SM BR VCSH OVC005
     FM301500 36010KT P6SM SCT007 OVC015
     FM301800 02011KT P6SM SCT015 BKN025
     FM302000 04011KT P6SM SCT020 BKN040=

USA.gov is the U.S. government's official web portal to all federal, state and local government web resources and services.